createdAt,value
2019-02-04T00:00:31.270Z,4.14
2019-02-04T00:03:00.970Z,4.33
2019-02-04T00:05:29.448Z,4.01
2019-02-04T00:07:57.729Z,4.34
2019-02-04T00:10:26.130Z,4.37
2019-02-04T00:12:54.538Z,4.47
2019-02-04T00:15:22.904Z,4.43
2019-02-04T00:17:51.389Z,4.34
2019-02-04T00:20:20.277Z,4.37
2019-02-04T00:22:48.731Z,4.33
2019-02-04T00:25:17.117Z,4.31
2019-02-04T00:27:46.091Z,4.00
2019-02-04T00:30:17.711Z,4.01
2019-02-04T00:32:46.254Z,4.17
2019-02-04T00:35:14.582Z,3.79
2019-02-04T00:37:42.981Z,4.15
2019-02-04T00:40:19.095Z,4.28
2019-02-04T00:42:47.670Z,4.27
2019-02-04T00:45:15.985Z,4.21
2019-02-04T00:47:44.302Z,4.25
2019-02-04T00:50:21.621Z,4.03
2019-02-04T00:52:50.310Z,4.06
2019-02-04T00:55:19.288Z,4.21
2019-02-04T00:57:47.905Z,4.22
2019-02-04T01:00:26.751Z,4.22
2019-02-04T01:02:55.155Z,4.31
2019-02-04T01:05:23.777Z,4.21
2019-02-04T01:07:52.463Z,4.15
2019-02-04T01:10:23.325Z,4.28
2019-02-04T01:12:51.682Z,4.32
2019-02-04T01:15:20.079Z,4.43
2019-02-04T01:17:48.444Z,4.66
2019-02-04T01:20:23.102Z,4.69
2019-02-04T01:22:52.503Z,4.73
2019-02-04T01:25:21.313Z,4.64
2019-02-04T01:27:49.718Z,4.39
2019-02-04T01:30:20.536Z,4.35
2019-02-04T01:32:49.441Z,4.41
2019-02-04T01:35:17.740Z,4.37
2019-02-04T01:37:46.434Z,4.44
2019-02-04T01:40:20.763Z,4.38
2019-02-04T01:42:49.538Z,4.36
2019-02-04T01:45:17.866Z,4.25
2019-02-04T01:47:46.539Z,4.31
2019-02-04T01:50:17.076Z,4.27
2019-02-04T01:52:45.499Z,4.28
2019-02-04T01:55:15.208Z,4.33
2019-02-04T01:57:45.165Z,4.21
2019-02-04T02:00:22.479Z,4.23
2019-02-04T02:02:50.979Z,4.32
2019-02-04T02:05:19.489Z,4.26
2019-02-04T02:07:47.882Z,4.28
2019-02-04T02:10:18.915Z,4.26
2019-02-04T02:12:47.326Z,4.38
2019-02-04T02:15:15.823Z,4.37
2019-02-04T02:17:44.343Z,4.33
2019-02-04T02:20:15.938Z,4.37
2019-02-04T02:22:44.285Z,4.24
2019-02-04T02:25:12.751Z,4.17
2019-02-04T02:27:41.046Z,4.22
2019-02-04T02:30:12.594Z,4.21
2019-02-04T02:32:41.564Z,4.01
2019-02-04T02:35:10.036Z,4.02
2019-02-04T02:37:38.333Z,3.94
2019-02-04T02:40:09.827Z,3.96
2019-02-04T02:42:39.311Z,3.75
2019-02-04T02:45:09.529Z,3.65
2019-02-04T02:47:38.758Z,3.72
2019-02-04T02:50:09.948Z,3.79
2019-02-04T02:52:38.463Z,3.77
2019-02-04T02:55:10.446Z,3.89
2019-02-04T02:57:38.814Z,3.86
2019-02-04T03:00:16.492Z,3.96
2019-02-04T03:02:44.917Z,3.80
2019-02-04T03:05:15.888Z,3.71
2019-02-04T03:07:44.250Z,3.57
2019-02-04T03:10:27.504Z,3.49
2019-02-04T03:12:56.854Z,3.63
2019-02-04T03:15:25.326Z,3.57
2019-02-04T03:17:53.727Z,3.60
2019-02-04T03:20:23.311Z,3.56
2019-02-04T03:22:51.618Z,3.56
2019-02-04T03:25:20.831Z,3.49
2019-02-04T03:27:50.826Z,3.39
2019-02-04T03:30:22.554Z,3.45
2019-02-04T03:32:51.484Z,3.48
2019-02-04T03:35:20.074Z,3.48
2019-02-04T03:37:48.550Z,3.50
2019-02-04T03:40:20.670Z,3.50
2019-02-04T03:42:49.141Z,3.52
2019-02-04T03:45:17.734Z,3.51
2019-02-04T03:47:47.478Z,3.49
2019-02-04T03:50:16.080Z,3.46
2019-02-04T03:52:44.568Z,3.52
2019-02-04T03:55:14.801Z,3.55
2019-02-04T03:57:43.539Z,3.28
2019-02-04T04:00:17.399Z,3.47
2019-02-04T04:02:46.125Z,3.48
2019-02-04T04:05:14.678Z,3.52
2019-02-04T04:07:44.406Z,3.53
2019-02-04T04:10:13.412Z,3.49
2019-02-04T04:12:41.755Z,3.47
2019-02-04T04:15:12.548Z,3.45
2019-02-04T04:17:41.145Z,3.48
2019-02-04T04:20:12.312Z,3.46
2019-02-04T04:22:41.847Z,3.42
2019-02-04T04:25:12.415Z,3.42
2019-02-04T04:27:40.773Z,3.54
2019-02-04T04:30:14.854Z,3.63
2019-02-04T04:32:43.285Z,3.68
2019-02-04T04:35:11.987Z,3.53
2019-02-04T04:37:40.406Z,3.48
2019-02-04T04:40:11.373Z,3.36
2019-02-04T04:42:39.791Z,3.32
2019-02-04T04:45:13.935Z,3.23
2019-02-04T04:47:43.234Z,3.18
2019-02-04T04:50:11.691Z,3.15
2019-02-04T04:52:39.999Z,3.00
2019-02-04T04:55:11.782Z,2.89
2019-02-04T04:57:40.110Z,2.84
2019-02-04T05:00:12.965Z,2.91
2019-02-04T05:02:41.728Z,2.95
2019-02-04T05:05:12.561Z,2.87
2019-02-04T05:07:40.996Z,2.84
2019-02-04T05:10:12.528Z,2.81
2019-02-04T05:12:40.813Z,2.82
2019-02-04T05:15:12.321Z,2.83
2019-02-04T05:17:40.613Z,2.73
2019-02-04T05:20:14.459Z,2.71
2019-02-04T05:22:42.750Z,2.71
2019-02-04T05:25:11.243Z,2.79
2019-02-04T05:27:39.668Z,2.73
2019-02-04T05:30:20.719Z,2.72
2019-02-04T05:32:49.159Z,2.80
2019-02-04T05:35:17.553Z,2.64
2019-02-04T05:37:45.868Z,2.63
2019-02-04T05:40:16.213Z,2.58
2019-02-04T05:42:45.033Z,2.61
2019-02-04T05:45:16.281Z,2.62
2019-02-04T05:47:44.648Z,2.52
2019-02-04T05:50:17.219Z,2.56
2019-02-04T05:52:45.349Z,2.37
2019-02-04T05:55:14.702Z,2.39
2019-02-04T05:57:43.202Z,2.32
2019-02-04T06:00:18.187Z,2.23
2019-02-04T06:02:46.586Z,2.20
2019-02-04T06:05:15.214Z,2.16
2019-02-04T06:07:44.571Z,2.13
2019-02-04T06:10:13.494Z,2.12
2019-02-04T06:12:42.088Z,2.18
2019-02-04T06:15:13.172Z,2.17
2019-02-04T06:17:41.531Z,2.15
2019-02-04T06:20:13.029Z,2.19
2019-02-04T06:22:41.369Z,2.10
2019-02-04T06:25:10.242Z,2.11
2019-02-04T06:27:38.814Z,2.09
2019-02-04T06:30:12.916Z,2.07
2019-02-04T06:32:41.303Z,2.13
2019-02-04T06:35:10.785Z,2.16
2019-02-04T06:37:39.291Z,2.22
2019-02-04T06:40:16.253Z,2.16
2019-02-04T06:42:44.840Z,2.09
2019-02-04T06:45:17.826Z,2.16
2019-02-04T06:47:46.493Z,2.28
2019-02-04T06:50:19.757Z,2.12
2019-02-04T06:52:48.209Z,2.04
2019-02-04T06:55:28.091Z,2.07
2019-02-04T06:57:56.484Z,2.18
2019-02-04T07:00:24.841Z,2.29
2019-02-04T07:02:53.424Z,2.21
2019-02-04T07:05:21.791Z,2.19
2019-02-04T07:07:50.147Z,2.13
2019-02-04T07:10:23.886Z,2.20
2019-02-04T07:12:52.295Z,2.19
2019-02-04T07:15:20.740Z,2.22
2019-02-04T07:17:49.060Z,2.31
2019-02-04T07:20:25.412Z,2.30
2019-02-04T07:22:54.074Z,2.16
2019-02-04T07:25:22.850Z,2.06
2019-02-04T07:27:51.232Z,2.20
2019-02-04T07:30:25.022Z,2.30
2019-02-04T07:32:53.694Z,2.35
2019-02-04T07:35:22.272Z,2.34
2019-02-04T07:37:50.895Z,2.44
2019-02-04T07:40:21.392Z,2.48
2019-02-04T07:42:51.022Z,2.48
2019-02-04T07:45:19.484Z,2.53
2019-02-04T07:47:48.157Z,2.66
2019-02-04T07:50:16.633Z,3.82
2019-02-04T07:52:45.090Z,6.40
2019-02-04T07:55:13.467Z,8.39
2019-02-04T07:57:42.023Z,10.28
2019-02-04T08:00:18.930Z,10.84
2019-02-04T08:02:47.297Z,12.36
2019-02-04T08:05:15.735Z,13.29
2019-02-04T08:07:44.073Z,13.84
2019-02-04T08:10:14.428Z,14.29
2019-02-04T08:12:42.825Z,14.38
2019-02-04T08:15:14.266Z,15.05
2019-02-04T08:17:42.751Z,16.29
2019-02-04T08:20:11.313Z,16.49
2019-02-04T08:22:39.689Z,16.59
2019-02-04T08:25:15.917Z,17.01
2019-02-04T08:27:44.308Z,17.18
2019-02-04T08:30:24.628Z,17.18
2019-02-04T08:32:53.157Z,17.36
2019-02-04T08:35:21.697Z,18.07
2019-02-04T08:37:50.082Z,18.88
2019-02-04T08:40:19.337Z,18.95
2019-02-04T08:42:47.796Z,17.80
2019-02-04T08:45:16.556Z,19.28
2019-02-04T08:47:44.949Z,19.51
2019-02-04T08:50:15.980Z,17.36
2019-02-04T08:52:44.287Z,17.62
2019-02-04T08:55:12.928Z,13.57
2019-02-04T08:57:41.394Z,11.79
2019-02-04T09:00:21.378Z,9.82
2019-02-04T09:02:49.795Z,9.86
2019-02-04T09:05:18.848Z,8.67
2019-02-04T09:07:47.328Z,8.67
2019-02-04T09:10:24.605Z,7.69
2019-02-04T09:12:53.275Z,7.97
2019-02-04T09:15:21.828Z,7.89
2019-02-04T09:17:50.248Z,7.69
2019-02-04T09:20:19.112Z,7.09
2019-02-04T09:22:47.782Z,7.09
2019-02-04T09:25:20.996Z,7.18
2019-02-04T09:27:49.823Z,7.11
2019-02-04T09:30:20.288Z,6.80
2019-02-04T09:32:48.785Z,6.26
2019-02-04T09:35:19.155Z,6.42
2019-02-04T09:37:47.823Z,6.14
2019-02-04T09:40:19.471Z,6.42
2019-02-04T09:42:48.049Z,6.34
2019-02-04T09:45:17.204Z,6.17
2019-02-04T09:47:45.811Z,6.29
2019-02-04T09:50:21.722Z,6.27
2019-02-04T09:52:49.995Z,6.15
2019-02-04T09:55:21.427Z,6.26
2019-02-04T09:57:49.871Z,5.86
2019-02-04T10:00:21.038Z,6.17
2019-02-04T10:02:49.720Z,5.95
2019-02-04T10:05:19.332Z,5.94
2019-02-04T10:07:47.717Z,5.63
2019-02-04T10:10:18.916Z,5.71
2019-02-04T10:12:47.232Z,5.63
2019-02-04T10:15:18.694Z,5.82
2019-02-04T10:17:47.064Z,5.75
2019-02-04T10:20:17.199Z,5.67
2019-02-04T10:22:46.161Z,5.62
2019-02-04T10:25:20.758Z,5.74
2019-02-04T10:27:49.162Z,5.75
2019-02-04T10:30:20.268Z,5.73
2019-02-04T10:32:48.749Z,5.67
2019-02-04T10:35:18.284Z,5.56
2019-02-04T10:37:48.203Z,5.34
2019-02-04T10:40:24.383Z,5.55
2019-02-04T10:42:52.771Z,5.48
2019-02-04T10:45:21.620Z,5.46
2019-02-04T10:47:50.547Z,5.09
2019-02-04T10:50:27.463Z,5.13
2019-02-04T10:52:56.043Z,5.22
2019-02-04T10:55:24.472Z,5.23
2019-02-04T10:57:52.841Z,5.29
2019-02-04T11:00:27.195Z,5.33
2019-02-04T11:02:55.943Z,5.16
2019-02-04T11:05:28.970Z,5.31
2019-02-04T11:07:57.450Z,5.22
2019-02-04T11:10:28.237Z,5.34
2019-02-04T11:12:56.909Z,5.35
2019-02-04T11:15:25.778Z,5.65
2019-02-04T11:17:54.415Z,5.74
2019-02-04T11:20:28.286Z,5.71
2019-02-04T11:22:56.933Z,5.86
2019-02-04T11:25:25.387Z,6.38
2019-02-04T11:27:53.929Z,8.14
2019-02-04T11:30:28.388Z,9.60
2019-02-04T11:32:56.770Z,12.07
2019-02-04T11:35:25.383Z,10.99
2019-02-04T11:37:53.797Z,10.49
2019-02-04T11:40:27.649Z,12.13
2019-02-04T11:42:56.071Z,12.68
2019-02-04T11:45:24.677Z,12.68
2019-02-04T11:47:53.312Z,13.00
2019-02-04T11:50:21.716Z,12.66
2019-02-04T11:52:50.093Z,13.37
2019-02-04T11:55:18.897Z,13.97
2019-02-04T11:57:47.373Z,13.52
2019-02-04T12:00:21.991Z,12.73
2019-02-04T12:02:50.832Z,13.45
2019-02-04T12:05:21.096Z,13.51
2019-02-04T12:07:49.542Z,13.89
2019-02-04T12:10:24.826Z,14.59
2019-02-04T12:12:53.562Z,14.48
2019-02-04T12:15:23.299Z,14.78
2019-02-04T12:17:52.333Z,14.74
2019-02-04T12:20:20.690Z,14.95
2019-02-04T12:22:49.725Z,15.21
2019-02-04T12:25:28.550Z,15.01
2019-02-04T12:27:57.648Z,15.22
2019-02-04T12:30:34.280Z,15.79
2019-02-04T12:33:04.147Z,16.00
2019-02-04T12:35:32.533Z,15.56
2019-02-04T12:38:00.915Z,15.19
2019-02-04T12:40:29.321Z,14.13
2019-02-04T12:42:57.720Z,13.72
2019-02-04T12:45:31.784Z,13.36
2019-02-04T12:48:00.966Z,13.90
2019-02-04T12:50:31.273Z,13.76
2019-02-04T12:52:59.722Z,14.08
2019-02-04T12:55:32.990Z,13.82
2019-02-04T12:58:01.295Z,13.85
2019-02-04T13:00:31.820Z,13.87
2019-02-04T13:03:00.374Z,14.13
2019-02-04T13:05:37.716Z,14.02
2019-02-04T13:08:08.262Z,13.52
2019-02-04T13:10:36.769Z,13.70
2019-02-04T13:13:07.906Z,13.47
2019-02-04T13:15:36.302Z,13.24
2019-02-04T13:18:05.152Z,12.59
2019-02-04T13:20:33.779Z,12.06
2019-02-04T13:23:02.382Z,11.54
2019-02-04T13:25:31.208Z,11.62
2019-02-04T13:27:59.657Z,11.52
2019-02-04T13:30:29.883Z,12.12
2019-02-04T13:32:58.494Z,11.85
2019-02-04T13:35:26.857Z,11.95
2019-02-04T13:37:55.680Z,11.44
2019-02-04T13:40:26.116Z,12.07
2019-02-04T13:42:54.568Z,12.06
2019-02-04T13:45:23.073Z,12.27
2019-02-04T13:47:52.833Z,11.60
2019-02-04T13:50:24.951Z,11.40
2019-02-04T13:52:54.299Z,11.34
2019-02-04T13:55:31.021Z,11.56
2019-02-04T13:57:59.455Z,11.55
2019-02-04T14:00:28.092Z,11.28
2019-02-04T14:02:59.500Z,11.39
2019-02-04T14:05:27.516Z,10.85
2019-02-04T14:07:56.058Z,10.47
2019-02-04T14:10:27.021Z,10.34
2019-02-04T14:12:55.471Z,10.03
2019-02-04T14:15:24.115Z,10.03
2019-02-04T14:17:52.572Z,9.60
2019-02-04T14:20:24.067Z,9.76
2019-02-04T14:22:53.446Z,9.47
2019-02-04T14:25:22.109Z,9.47
2019-02-04T14:27:50.691Z,9.41
2019-02-04T14:30:22.181Z,9.26
2019-02-04T14:32:51.212Z,8.95
2019-02-04T14:35:19.594Z,9.11
2019-02-04T14:37:48.162Z,9.11
2019-02-04T14:40:18.866Z,9.09
2019-02-04T14:42:49.800Z,8.92
2019-02-04T14:45:27.522Z,8.81
2019-02-04T14:48:04.240Z,8.90
2019-02-04T14:50:34.879Z,8.94
2019-02-04T14:53:30.770Z,8.76
2019-02-04T14:56:14.045Z,8.29
2019-02-04T14:59:00.270Z,8.27
2019-02-04T15:01:40.649Z,8.04
2019-02-04T15:04:26.596Z,7.87
2019-02-04T15:07:21.176Z,7.70
2019-02-04T15:10:04.556Z,7.70
2019-02-04T15:12:36.042Z,7.47
2019-02-04T15:15:10.366Z,7.40
2019-02-04T15:17:42.200Z,7.42
2019-02-04T15:20:47.168Z,7.25
2019-02-04T15:23:18.658Z,7.29
2019-02-04T15:26:05.313Z,7.18
2019-02-04T15:28:42.595Z,7.22
2019-02-04T15:31:35.150Z,7.23
2019-02-04T15:34:23.214Z,7.09
2019-02-04T15:36:57.910Z,6.73
2019-02-04T15:39:38.226Z,6.59
2019-02-04T15:42:32.502Z,6.57
2019-02-04T15:45:06.990Z,6.40
2019-02-04T15:47:38.474Z,6.47
2019-02-04T15:50:34.145Z,6.45
2019-02-04T15:53:02.566Z,6.22
2019-02-04T15:55:31.113Z,6.13
2019-02-04T15:57:59.525Z,6.09
2019-02-04T16:00:28.034Z,5.97
2019-02-04T16:02:56.436Z,6.00
2019-02-04T16:05:25.007Z,5.98
2019-02-04T16:07:53.373Z,6.00
2019-02-04T16:10:21.774Z,5.98
2019-02-04T16:12:50.225Z,5.86
2019-02-04T16:15:18.710Z,5.59
2019-02-04T16:17:47.207Z,5.50
2019-02-04T16:20:21.352Z,5.33
2019-02-04T16:22:58.072Z,5.11
2019-02-04T16:25:19.922Z,4.97
2019-02-04T16:27:48.372Z,4.93
2019-02-04T16:30:19.051Z,4.96
2019-02-04T16:32:47.431Z,4.89
2019-02-04T16:35:19.746Z,4.87
2019-02-04T16:37:48.883Z,4.75
2019-02-04T16:40:19.358Z,4.73
2019-02-04T16:42:47.801Z,4.62
2019-02-04T16:45:22.255Z,4.53
2019-02-04T16:47:51.092Z,4.50
2019-02-04T16:50:24.453Z,4.43
2019-02-04T16:52:52.836Z,4.36
2019-02-04T16:55:21.334Z,4.36
2019-02-04T16:57:49.637Z,4.30
2019-02-04T17:00:21.206Z,4.26
2019-02-04T17:02:49.926Z,4.28
2019-02-04T17:05:19.340Z,4.25
2019-02-04T17:07:47.722Z,4.18
2019-02-04T17:10:18.907Z,4.11
2019-02-04T17:12:47.393Z,4.10
2019-02-04T17:15:15.832Z,3.98
2019-02-04T17:17:44.628Z,3.93
2019-02-04T17:20:21.948Z,3.84
2019-02-04T17:22:50.382Z,3.82
2019-02-04T17:25:18.758Z,3.67
2019-02-04T17:27:47.264Z,3.75
2019-02-04T17:30:18.593Z,3.78
2019-02-04T17:32:47.018Z,3.75
2019-02-04T17:35:15.380Z,3.80
2019-02-04T17:37:43.774Z,3.85
2019-02-04T17:40:17.270Z,3.90
2019-02-04T17:42:45.840Z,3.87
2019-02-04T17:45:16.580Z,4.03
2019-02-04T17:47:45.879Z,4.08
2019-02-04T17:50:19.256Z,4.09
2019-02-04T17:52:47.727Z,4.03
2019-02-04T17:55:18.396Z,3.96
2019-02-04T17:57:46.799Z,3.78
2019-02-04T18:00:38.464Z,3.64
2019-02-04T18:03:07.219Z,3.70
2019-02-04T18:05:35.648Z,3.71
2019-02-04T18:08:04.390Z,3.66
2019-02-04T18:10:33.195Z,3.55
2019-02-04T18:13:01.604Z,3.66
2019-02-04T18:15:30.159Z,3.66
2019-02-04T18:17:58.655Z,3.57
2019-02-04T18:20:27.056Z,3.56
2019-02-04T18:22:55.360Z,3.52
2019-02-04T18:25:24.026Z,3.53
2019-02-04T18:27:52.321Z,3.63
2019-02-04T18:30:22.756Z,3.68
2019-02-04T18:32:51.321Z,3.62
2019-02-04T18:35:19.774Z,3.67
2019-02-04T18:37:48.441Z,3.59
2019-02-04T18:40:21.987Z,3.53
2019-02-04T18:42:50.856Z,3.45
2019-02-04T18:45:25.404Z,3.42
2019-02-04T18:47:53.769Z,3.43
2019-02-04T18:50:23.755Z,3.29
2019-02-04T18:52:52.397Z,3.25
2019-02-04T18:55:23.470Z,3.14
2019-02-04T18:57:52.289Z,3.15
2019-02-04T19:00:23.097Z,3.21
2019-02-04T19:02:51.656Z,3.08
2019-02-04T19:05:20.826Z,3.11
2019-02-04T19:07:49.316Z,3.07
2019-02-04T19:10:19.649Z,3.12
2019-02-04T19:12:48.183Z,3.12
2019-02-04T19:15:19.447Z,3.00
2019-02-04T19:17:48.414Z,3.09
2019-02-04T19:20:21.935Z,3.09
2019-02-04T19:22:50.323Z,3.25
2019-02-04T19:25:21.168Z,3.24
2019-02-04T19:27:50.680Z,3.22
2019-02-04T19:30:22.156Z,3.30
2019-02-04T19:32:50.707Z,3.41
2019-02-04T19:35:19.089Z,3.20
2019-02-04T19:37:47.545Z,3.31
2019-02-04T19:40:17.499Z,2.95
2019-02-04T19:42:45.938Z,2.81
2019-02-04T19:45:17.390Z,3.07
2019-02-04T19:47:45.927Z,3.16
2019-02-04T19:50:32.308Z,3.06
2019-02-04T19:53:00.909Z,3.06
2019-02-04T19:55:29.337Z,3.15
2019-02-04T19:57:57.949Z,3.08
2019-02-04T20:00:26.714Z,2.87
2019-02-04T20:02:55.256Z,2.98
2019-02-04T20:05:28.476Z,2.96
2019-02-04T20:07:57.292Z,2.91
2019-02-04T20:10:31.532Z,2.97
2019-02-04T20:12:59.933Z,3.06
2019-02-04T20:15:30.085Z,3.14
2019-02-04T20:17:58.909Z,3.06
2019-02-04T20:20:28.062Z,3.08
2019-02-04T20:22:56.838Z,3.04
2019-02-04T20:25:31.265Z,2.99
2019-02-04T20:27:59.726Z,3.06
2019-02-04T20:30:45.489Z,3.05
2019-02-04T20:33:05.370Z,2.86
2019-02-04T20:35:33.878Z,3.03
2019-02-04T20:38:02.308Z,2.97
2019-02-04T20:40:30.983Z,2.98
2019-02-04T20:42:59.367Z,3.03
2019-02-04T20:45:28.760Z,3.03
2019-02-04T20:47:57.227Z,2.98
2019-02-04T20:50:28.382Z,3.13
2019-02-04T20:52:56.866Z,3.22
2019-02-04T20:55:25.194Z,2.98
2019-02-04T20:57:53.584Z,3.19
2019-02-04T21:00:24.924Z,3.13
2019-02-04T21:02:53.310Z,2.92
2019-02-04T21:05:21.774Z,2.93
2019-02-04T21:07:50.394Z,3.08
2019-02-04T21:10:21.112Z,3.12
2019-02-04T21:12:49.446Z,3.20
2019-02-04T21:15:19.923Z,3.21
2019-02-04T21:17:48.305Z,3.21
2019-02-04T21:20:21.529Z,3.23
2019-02-04T21:22:49.908Z,3.24
2019-02-04T21:25:18.471Z,3.22
2019-02-04T21:27:46.844Z,3.19
2019-02-04T21:30:20.639Z,3.28
2019-02-04T21:32:49.626Z,3.31
2019-02-04T21:35:18.171Z,3.18
2019-02-04T21:37:46.611Z,3.24
2019-02-04T21:40:17.372Z,3.20
2019-02-04T21:42:46.198Z,2.97
2019-02-04T21:45:19.487Z,3.09
2019-02-04T21:47:47.944Z,3.05
2019-02-04T21:50:18.591Z,2.99
2019-02-04T21:52:46.970Z,2.94
2019-02-04T21:55:15.610Z,2.99
2019-02-04T21:57:44.598Z,3.03
2019-02-04T22:00:16.172Z,2.98
2019-02-04T22:02:44.504Z,2.97
2019-02-04T22:05:15.355Z,2.91
2019-02-04T22:07:43.863Z,3.06
2019-02-04T22:10:20.696Z,3.11
2019-02-04T22:12:49.092Z,3.26
2019-02-04T22:15:17.474Z,3.19
2019-02-04T22:17:45.941Z,3.13
2019-02-04T22:20:21.132Z,3.16
2019-02-04T22:22:49.543Z,3.00
2019-02-04T22:25:22.321Z,2.99
2019-02-04T22:27:50.647Z,2.97
2019-02-04T22:30:21.052Z,2.98
2019-02-04T22:32:49.435Z,2.96
2019-02-04T22:35:17.973Z,3.09
2019-02-04T22:37:46.410Z,3.10
2019-02-04T22:40:17.819Z,3.17
2019-02-04T22:42:46.143Z,3.14
2019-02-04T22:45:16.423Z,3.12
2019-02-04T22:47:45.100Z,2.93
2019-02-04T22:50:18.949Z,2.97
2019-02-04T22:52:47.455Z,2.91
2019-02-04T22:55:16.287Z,3.03
2019-02-04T22:57:44.670Z,3.01
2019-02-04T23:00:41.685Z,2.91
2019-02-04T23:03:10.610Z,2.75
2019-02-04T23:05:39.045Z,2.73
2019-02-04T23:08:07.490Z,2.88
2019-02-04T23:10:36.226Z,2.91
2019-02-04T23:13:05.772Z,2.80
2019-02-04T23:15:34.237Z,2.73
2019-02-04T23:18:02.677Z,2.76
2019-02-04T23:20:31.344Z,2.82
2019-02-04T23:22:59.746Z,2.82
2019-02-04T23:25:28.075Z,2.81
2019-02-04T23:27:56.454Z,2.99
2019-02-04T23:30:24.893Z,2.95
2019-02-04T23:32:53.256Z,3.05
2019-02-04T23:35:23.785Z,2.93
2019-02-04T23:37:52.100Z,2.94
2019-02-04T23:40:20.514Z,2.87
2019-02-04T23:42:48.827Z,2.74
2019-02-04T23:45:17.276Z,2.74
2019-02-04T23:47:45.575Z,2.80
2019-02-04T23:50:16.310Z,2.69
2019-02-04T23:52:44.753Z,2.67
2019-02-04T23:55:14.199Z,2.68
2019-02-04T23:57:42.769Z,2.64
